Flugwetter

METAR EDDW
2021/06/25 04:20 EDDW 250420Z 17002KT 9999 2500SW BR NSC 11/10 Q1017 NOSIG
TAF EDDW
2021/06/24 18:27 TAF EDDW 241700Z 2418/2518 29008KT 9999 SCT030 BECMG 2418/2420 VRB03KT PROB40 TEMPO 2502/2505 1200 BCFG BECMG 2508/2510 26006KT BECMG 2516/2518 VRB03KT
METAR EDDH
2021/06/25 04:20 EDDH 250420Z VRB01KT CAVOK 12/11 Q1017 NOSIG
TAF EDDH
2021/06/24 18:27 TAF EDDH 241700Z 2418/2524 30008KT 9999 BKN035 BECMG 2418/2421 VRB03KT BECMG 2508/2510 27005KT BECMG 2516/2518 VRB03KT
METAR VRMM
2021/06/25 04:00 VRMM 250400Z 30010KT 9999 FEW018 FEW019CB BKN260 30/25 Q1012 CB SE TEMPO 5000 SHRA
TAF VRMM
2021/06/24 18:10 TAF VRMM 241700Z 2418/2524 29015KT 9999 FEW018TCU TEMPO 2420/2501 5000 SHRA FEW018CB

Quelle:

Bereitgestellt von den Servern der NOAA tgftp.nws.noaa.gov
Alle Angaben ohne Gewähr